createdAt,value
2018-12-25T00:02:05.382Z,0.00
2018-12-25T00:04:35.815Z,0.00
2018-12-25T00:07:06.035Z,-0.10
2018-12-25T00:09:36.496Z,-0.10
2018-12-25T00:12:06.753Z,-0.10
2018-12-25T00:14:37.067Z,-0.10
2018-12-25T00:17:07.534Z,0.00
2018-12-25T00:19:37.936Z,-0.10
2018-12-25T00:22:08.454Z,0.00
2018-12-25T00:24:38.732Z,-0.10
2018-12-25T00:27:08.986Z,0.00
2018-12-25T00:29:39.276Z,-0.10
2018-12-25T00:32:09.558Z,-0.10
2018-12-25T00:34:39.879Z,-0.10
2018-12-25T00:37:10.120Z,-0.10
2018-12-25T00:39:40.410Z,-0.10
2018-12-25T00:42:10.785Z,0.00
2018-12-25T00:44:41.056Z,-0.10
2018-12-25T00:47:11.338Z,0.00
2018-12-25T00:49:41.586Z,0.00
2018-12-25T00:52:11.870Z,0.10
2018-12-25T00:54:43.530Z,0.00
2018-12-25T00:57:13.845Z,-0.10
2018-12-25T00:59:44.221Z,-0.10
2018-12-25T01:02:14.436Z,-0.10
2018-12-25T01:04:44.856Z,-0.10
2018-12-25T01:07:15.154Z,0.00
2018-12-25T01:09:45.455Z,-0.10
2018-12-25T01:12:15.798Z,-0.10
2018-12-25T01:14:46.316Z,-0.10
2018-12-25T01:17:16.616Z,-0.10
2018-12-25T01:19:46.880Z,-0.10
2018-12-25T01:22:17.128Z,0.00
2018-12-25T01:24:47.419Z,0.00
2018-12-25T01:27:17.742Z,-0.10
2018-12-25T01:29:48.102Z,-0.10
2018-12-25T01:32:18.356Z,0.00
2018-12-25T01:34:48.619Z,0.00
2018-12-25T01:37:18.933Z,-0.10
2018-12-25T01:39:49.296Z,-0.10
2018-12-25T01:42:19.557Z,0.00
2018-12-25T01:44:49.852Z,-0.10
2018-12-25T01:47:20.190Z,-0.10
2018-12-25T01:49:50.442Z,-0.20
2018-12-25T01:52:20.690Z,-0.20
2018-12-25T01:54:51.010Z,-0.10
2018-12-25T01:57:21.319Z,-0.20
2018-12-25T01:59:51.645Z,-0.20
2018-12-25T02:02:22.117Z,-0.20
2018-12-25T02:04:52.395Z,-0.20
2018-12-25T02:07:22.694Z,-0.20
2018-12-25T02:09:52.971Z,-0.30
2018-12-25T02:12:23.285Z,-0.30
2018-12-25T02:14:53.658Z,-0.20
2018-12-25T02:17:23.998Z,-0.20
2018-12-25T02:19:54.325Z,-0.30
2018-12-25T02:22:24.563Z,-0.20
2018-12-25T02:24:54.857Z,-0.20
2018-12-25T02:27:25.245Z,-0.30
2018-12-25T02:29:55.487Z,-0.30
2018-12-25T02:32:25.803Z,-0.20
2018-12-25T02:34:56.091Z,-0.40
2018-12-25T02:37:26.515Z,-0.30
2018-12-25T02:39:58.044Z,-0.20
2018-12-25T02:42:28.382Z,-0.40
2018-12-25T02:44:58.640Z,-0.40
2018-12-25T02:47:28.927Z,-0.40
2018-12-25T02:49:59.129Z,-0.50
2018-12-25T02:52:29.754Z,-0.50
2018-12-25T02:55:00.006Z,-0.60
2018-12-25T02:57:30.326Z,-0.60
2018-12-25T03:00:00.792Z,-0.70
2018-12-25T03:02:31.448Z,-0.70
2018-12-25T03:05:01.712Z,-0.70
2018-12-25T03:07:32.058Z,-0.70
2018-12-25T03:10:02.328Z,-0.80
2018-12-25T03:12:32.610Z,-0.80
2018-12-25T03:15:02.939Z,-0.80
2018-12-25T03:17:33.286Z,-0.90
2018-12-25T03:20:05.269Z,-0.90
2018-12-25T03:22:35.553Z,-0.90
2018-12-25T03:25:06.138Z,-1.00
2018-12-25T03:27:36.464Z,-0.90
2018-12-25T03:30:06.888Z,-0.90
2018-12-25T03:32:37.193Z,-1.00
2018-12-25T03:35:07.510Z,-1.00
2018-12-25T03:37:37.805Z,-1.00
2018-12-25T03:40:08.319Z,-1.10
2018-12-25T03:42:38.732Z,-1.10
2018-12-25T03:45:08.940Z,-1.10
2018-12-25T03:47:39.272Z,-1.10
2018-12-25T03:50:11.037Z,-1.00
2018-12-25T03:52:41.489Z,-1.00
2018-12-25T03:55:14.476Z,-1.00
2018-12-25T03:57:44.774Z,-1.00
2018-12-25T04:00:15.166Z,-1.10
2018-12-25T04:02:45.436Z,-1.10
2018-12-25T04:05:15.691Z,-1.10
2018-12-25T04:07:45.995Z,-1.10
2018-12-25T04:10:16.266Z,-1.10
2018-12-25T04:12:46.606Z,-1.10
2018-12-25T04:15:16.989Z,-1.00
2018-12-25T04:17:47.343Z,-1.00
2018-12-25T04:20:19.966Z,-1.00
2018-12-25T04:22:49.473Z,-1.00
2018-12-25T04:25:19.784Z,-1.00
2018-12-25T04:27:50.077Z,-1.00
2018-12-25T04:30:20.345Z,-1.00
2018-12-25T04:32:50.611Z,-1.00
2018-12-25T04:35:20.885Z,-0.90
2018-12-25T04:37:51.303Z,-0.90
2018-12-25T04:40:21.560Z,-0.90
2018-12-25T04:42:51.889Z,-0.90
2018-12-25T04:45:22.360Z,-0.90
2018-12-25T04:47:52.633Z,-0.90
2018-12-25T04:50:29.165Z,-0.90
2018-12-25T04:52:54.922Z,-0.80
2018-12-25T04:55:25.323Z,-0.70
2018-12-25T04:57:55.634Z,-0.70
2018-12-25T05:00:25.886Z,-0.70
2018-12-25T05:02:56.158Z,-0.60
2018-12-25T05:05:26.480Z,-0.50
2018-12-25T05:07:56.779Z,-0.50
2018-12-25T05:10:27.015Z,-0.40
2018-12-25T05:12:57.323Z,-0.30
2018-12-25T05:15:27.618Z,-0.20
2018-12-25T05:17:57.968Z,-0.20
2018-12-25T05:20:28.346Z,-0.10
2018-12-25T05:22:58.651Z,0.00
2018-12-25T05:25:29.072Z,0.00
2018-12-25T05:27:59.574Z,0.10
2018-12-25T05:30:29.877Z,0.20
2018-12-25T05:33:00.210Z,0.20
2018-12-25T05:35:31.086Z,0.20
2018-12-25T05:38:01.442Z,0.20
2018-12-25T05:40:31.686Z,0.20
2018-12-25T05:43:02.055Z,0.20
2018-12-25T05:45:32.306Z,0.30
2018-12-25T05:48:02.617Z,0.40
2018-12-25T05:50:46.429Z,0.40
2018-12-25T05:53:10.923Z,0.40
2018-12-25T05:55:41.318Z,0.40
2018-12-25T05:58:11.646Z,0.40
2018-12-25T06:00:41.943Z,0.40
2018-12-25T06:03:12.193Z,0.50
2018-12-25T06:05:42.521Z,0.40
2018-12-25T06:08:12.887Z,0.40
2018-12-25T06:10:43.202Z,0.40
2018-12-25T06:13:13.517Z,0.50
2018-12-25T06:15:43.839Z,0.50
2018-12-25T06:18:14.130Z,0.50
2018-12-25T06:20:44.390Z,0.60
2018-12-25T06:23:14.723Z,0.60
2018-12-25T06:25:44.878Z,0.50
2018-12-25T06:28:15.178Z,0.50
2018-12-25T06:30:45.509Z,0.40
2018-12-25T06:33:15.821Z,0.50
2018-12-25T06:35:46.068Z,0.60
2018-12-25T06:38:16.351Z,0.50
2018-12-25T06:40:46.634Z,0.60
2018-12-25T06:43:17.084Z,0.60
2018-12-25T06:45:47.365Z,0.80
2018-12-25T06:48:17.854Z,0.90
2018-12-25T06:50:48.162Z,1.00
2018-12-25T06:53:18.510Z,1.00
2018-12-25T06:55:48.851Z,1.10
2018-12-25T06:58:19.127Z,0.90
2018-12-25T07:00:49.604Z,0.90
2018-12-25T07:03:19.907Z,0.90
2018-12-25T07:05:50.239Z,0.70
2018-12-25T07:08:20.931Z,1.00
2018-12-25T07:10:51.219Z,0.80
2018-12-25T07:13:21.547Z,0.90
2018-12-25T07:15:51.873Z,0.90
2018-12-25T07:18:22.148Z,0.90
2018-12-25T07:20:52.441Z,0.80
2018-12-25T07:23:22.700Z,0.90
2018-12-25T07:25:53.351Z,1.00
2018-12-25T07:28:23.588Z,0.90
2018-12-25T07:30:53.820Z,0.90
2018-12-25T07:33:24.175Z,1.00
2018-12-25T07:35:54.468Z,1.00
2018-12-25T07:38:24.888Z,1.10
2018-12-25T07:40:55.115Z,1.20
2018-12-25T07:43:25.502Z,1.30
2018-12-25T07:45:55.930Z,1.30
2018-12-25T07:48:26.219Z,1.30
2018-12-25T07:50:56.584Z,1.30
2018-12-25T07:53:26.899Z,1.30
2018-12-25T07:55:57.172Z,1.30
2018-12-25T07:58:27.488Z,1.40
2018-12-25T08:00:57.766Z,1.20
2018-12-25T08:03:28.346Z,1.10
2018-12-25T08:05:58.622Z,1.00
2018-12-25T08:08:28.946Z,1.20
2018-12-25T08:10:59.310Z,1.20
2018-12-25T08:13:29.673Z,1.30
2018-12-25T08:16:00.160Z,1.40
2018-12-25T08:18:30.447Z,1.40
2018-12-25T08:21:00.724Z,1.40
2018-12-25T08:23:30.986Z,1.40
2018-12-25T08:26:01.570Z,1.50
2018-12-25T08:28:31.879Z,1.50
2018-12-25T08:31:02.327Z,1.50
2018-12-25T08:33:34.715Z,1.50
2018-12-25T08:36:05.120Z,1.60
2018-12-25T08:38:35.896Z,1.70
2018-12-25T08:41:06.295Z,1.70
2018-12-25T08:43:37.002Z,1.80
2018-12-25T08:46:07.500Z,1.70
2018-12-25T08:48:38.062Z,1.80
2018-12-25T08:51:08.298Z,1.80
2018-12-25T08:53:38.613Z,1.90
2018-12-25T08:56:08.950Z,2.00
2018-12-25T08:58:39.312Z,1.90
2018-12-25T09:01:09.573Z,2.00
2018-12-25T09:03:39.831Z,2.20
2018-12-25T09:06:10.124Z,2.00
2018-12-25T09:08:40.368Z,2.20
2018-12-25T09:11:10.675Z,2.20
2018-12-25T09:13:44.007Z,2.10
2018-12-25T09:16:14.321Z,2.10
2018-12-25T09:18:44.930Z,2.00
2018-12-25T09:21:15.275Z,2.10
2018-12-25T09:23:45.642Z,2.10
2018-12-25T09:26:15.961Z,2.20
2018-12-25T09:28:46.274Z,2.20
2018-12-25T09:31:16.593Z,2.00
2018-12-25T09:33:46.887Z,1.90
2018-12-25T09:36:17.182Z,1.80
2018-12-25T09:38:47.593Z,1.80
2018-12-25T09:41:18.105Z,1.80
2018-12-25T09:43:48.597Z,1.90
2018-12-25T09:46:18.989Z,1.90
2018-12-25T09:48:49.297Z,1.90
2018-12-25T09:51:20.158Z,1.90
2018-12-25T09:53:50.615Z,1.90
2018-12-25T09:56:20.929Z,1.80
2018-12-25T09:58:51.468Z,1.90
2018-12-25T10:01:21.771Z,1.90
2018-12-25T10:03:52.220Z,2.00
2018-12-25T10:06:22.519Z,2.10
2018-12-25T10:08:52.814Z,2.00
2018-12-25T10:11:23.771Z,2.00
2018-12-25T10:13:55.338Z,1.90
2018-12-25T10:16:25.681Z,1.90
2018-12-25T10:18:55.895Z,1.90
2018-12-25T10:21:26.262Z,2.00
2018-12-25T10:23:56.650Z,2.10
2018-12-25T10:26:26.973Z,1.90
2018-12-25T10:28:57.804Z,2.00
2018-12-25T10:31:28.207Z,2.00
2018-12-25T10:33:58.536Z,2.10
2018-12-25T10:36:28.710Z,2.00
2018-12-25T10:38:59.177Z,2.80
2018-12-25T10:41:29.668Z,3.10
2018-12-25T10:44:00.675Z,3.40
2018-12-25T10:46:31.040Z,2.90
2018-12-25T10:49:01.585Z,2.50
2018-12-25T10:51:31.884Z,2.30
2018-12-25T10:54:02.376Z,2.10
2018-12-25T10:56:32.646Z,2.10
2018-12-25T10:59:03.050Z,2.00
2018-12-25T11:01:36.175Z,2.20
2018-12-25T11:04:06.470Z,2.10
2018-12-25T11:06:36.754Z,2.10
2018-12-25T11:09:07.220Z,2.00
2018-12-25T11:11:37.479Z,2.00
2018-12-25T11:14:07.792Z,1.90
2018-12-25T11:16:38.244Z,2.00
2018-12-25T11:19:08.706Z,1.90
2018-12-25T11:21:39.401Z,2.00
2018-12-25T11:24:09.726Z,2.00
2018-12-25T11:26:40.021Z,2.00
2018-12-25T11:29:10.309Z,2.00
2018-12-25T11:31:40.564Z,2.00
2018-12-25T11:34:10.880Z,2.00
2018-12-25T11:36:41.203Z,1.90
2018-12-25T11:39:11.512Z,1.70
2018-12-25T11:41:42.251Z,1.70
2018-12-25T11:44:12.502Z,1.80
2018-12-25T11:46:42.966Z,1.90
2018-12-25T11:49:13.444Z,1.90
2018-12-25T11:51:43.809Z,1.90
2018-12-25T11:54:14.178Z,2.00
2018-12-25T11:56:44.575Z,1.90
2018-12-25T11:59:15.033Z,2.10
2018-12-25T12:01:45.540Z,2.20
2018-12-25T12:04:15.833Z,2.10
2018-12-25T12:06:46.122Z,2.20
2018-12-25T12:09:16.406Z,2.10
2018-12-25T12:11:46.729Z,2.20
2018-12-25T12:14:17.141Z,2.30
2018-12-25T12:16:47.536Z,2.30
2018-12-25T12:19:17.874Z,2.30
2018-12-25T12:21:48.315Z,2.30
2018-12-25T12:24:18.628Z,2.20
2018-12-25T12:26:48.927Z,2.30
2018-12-25T12:29:19.212Z,2.30
2018-12-25T12:31:49.531Z,2.50
2018-12-25T12:34:19.990Z,2.50
2018-12-25T12:36:50.382Z,2.30
2018-12-25T12:39:20.779Z,2.40
2018-12-25T12:41:51.298Z,2.50
2018-12-25T12:44:21.695Z,2.50
2018-12-25T12:46:52.058Z,2.40
2018-12-25T12:49:22.365Z,2.40
2018-12-25T12:51:53.025Z,2.50
2018-12-25T12:54:23.376Z,2.50
2018-12-25T12:56:54.028Z,2.60
2018-12-25T12:59:24.285Z,2.50
2018-12-25T13:01:54.595Z,2.70
2018-12-25T13:04:24.919Z,2.90
2018-12-25T13:06:55.245Z,2.90
2018-12-25T13:09:26.038Z,2.80
2018-12-25T13:11:56.332Z,2.80
2018-12-25T13:14:26.984Z,2.80
2018-12-25T13:16:57.359Z,2.70
2018-12-25T13:19:27.835Z,2.80
2018-12-25T13:21:58.255Z,2.70
2018-12-25T13:24:28.710Z,2.80
2018-12-25T13:26:59.031Z,2.80
2018-12-25T13:29:29.564Z,2.70
2018-12-25T13:32:00.106Z,2.70
2018-12-25T13:34:30.481Z,2.70
2018-12-25T13:37:00.719Z,2.60
2018-12-25T13:39:31.450Z,2.60
2018-12-25T13:42:01.687Z,2.60
2018-12-25T13:44:33.249Z,2.60
2018-12-25T13:47:03.558Z,2.70
2018-12-25T13:49:33.938Z,2.70
2018-12-25T13:52:04.260Z,2.70
2018-12-25T13:54:34.676Z,2.70
2018-12-25T13:57:04.990Z,2.80
2018-12-25T13:59:35.228Z,2.70
2018-12-25T14:02:05.589Z,2.70
2018-12-25T14:04:35.842Z,2.50
2018-12-25T14:07:06.193Z,2.40
2018-12-25T14:09:36.536Z,2.50
2018-12-25T14:12:06.842Z,2.60
2018-12-25T14:14:37.155Z,2.60
2018-12-25T14:17:07.558Z,2.60
2018-12-25T14:19:37.922Z,2.50
2018-12-25T14:22:08.260Z,2.60
2018-12-25T14:24:39.140Z,2.60
2018-12-25T14:27:10.752Z,2.70
2018-12-25T14:29:41.178Z,2.60
2018-12-25T14:32:11.423Z,2.60
2018-12-25T14:34:41.751Z,2.50
2018-12-25T14:37:13.031Z,2.50
2018-12-25T14:39:43.432Z,2.60
2018-12-25T14:42:13.761Z,2.50
2018-12-25T14:44:44.068Z,2.60
2018-12-25T14:47:14.337Z,2.60
2018-12-25T14:49:44.610Z,2.60
2018-12-25T14:52:15.003Z,2.70
2018-12-25T14:54:47.846Z,2.60
2018-12-25T14:57:18.990Z,2.50
2018-12-25T14:59:49.355Z,2.30
2018-12-25T15:02:19.876Z,2.30
2018-12-25T15:04:50.479Z,2.20
2018-12-25T15:07:20.914Z,2.20
2018-12-25T15:09:51.222Z,2.30
2018-12-25T15:12:21.552Z,2.30
2018-12-25T15:14:51.907Z,2.20
2018-12-25T15:17:22.404Z,2.20
2018-12-25T15:19:52.728Z,2.20
2018-12-25T15:22:23.828Z,2.20
2018-12-25T15:24:54.144Z,2.20
2018-12-25T15:27:24.446Z,2.20
2018-12-25T15:29:54.785Z,2.20
2018-12-25T15:32:25.407Z,2.20
2018-12-25T15:34:57.302Z,2.20
2018-12-25T15:37:27.532Z,2.20
2018-12-25T15:39:57.850Z,2.10
2018-12-25T15:42:28.108Z,2.00
2018-12-25T15:44:58.416Z,2.00
2018-12-25T15:47:28.996Z,2.00
2018-12-25T15:49:59.292Z,2.00
2018-12-25T15:52:29.643Z,2.00
2018-12-25T15:55:00.003Z,2.10
2018-12-25T15:57:30.302Z,2.10
2018-12-25T16:00:00.832Z,2.10
2018-12-25T16:02:31.166Z,2.10
2018-12-25T16:05:01.493Z,2.10
2018-12-25T16:07:31.774Z,2.10
2018-12-25T16:10:02.081Z,2.10
2018-12-25T16:12:32.482Z,2.10
2018-12-25T16:15:02.814Z,2.10
2018-12-25T16:17:33.236Z,2.20
2018-12-25T16:20:03.667Z,2.20
2018-12-25T16:22:33.957Z,2.30
2018-12-25T16:25:04.287Z,2.30
2018-12-25T16:27:34.602Z,2.30
2018-12-25T16:30:06.565Z,2.40
2018-12-25T16:32:36.988Z,2.40
2018-12-25T16:35:07.956Z,2.40
2018-12-25T16:37:38.306Z,2.40
2018-12-25T16:40:09.680Z,2.40
2018-12-25T16:42:40.006Z,2.40
2018-12-25T16:45:10.297Z,2.50
2018-12-25T16:47:40.676Z,2.50
2018-12-25T16:50:11.102Z,2.60
2018-12-25T16:52:41.573Z,2.70
2018-12-25T16:55:11.858Z,2.70
2018-12-25T16:57:42.240Z,2.70
2018-12-25T17:00:12.898Z,2.70
2018-12-25T17:02:43.218Z,2.70
2018-12-25T17:05:13.675Z,2.80
2018-12-25T17:07:44.062Z,2.80
2018-12-25T17:10:14.404Z,2.80
2018-12-25T17:12:44.895Z,2.80
2018-12-25T17:15:15.101Z,2.90
2018-12-25T17:17:45.445Z,2.90
2018-12-25T17:20:15.774Z,2.90
2018-12-25T17:22:46.034Z,3.00
2018-12-25T17:25:16.499Z,2.90
2018-12-25T17:27:46.780Z,3.00
2018-12-25T17:30:17.108Z,3.00
2018-12-25T17:32:47.385Z,3.00
2018-12-25T17:35:17.789Z,3.00
2018-12-25T17:37:48.562Z,3.00
2018-12-25T17:40:18.914Z,3.10
2018-12-25T17:42:49.244Z,3.10
2018-12-25T17:45:19.789Z,3.10
2018-12-25T17:47:50.408Z,3.20
2018-12-25T17:50:20.803Z,3.20
2018-12-25T17:52:51.090Z,3.20
2018-12-25T17:55:21.434Z,3.20
2018-12-25T17:57:52.456Z,3.20
2018-12-25T18:00:22.846Z,3.30
2018-12-25T18:02:53.122Z,3.30
2018-12-25T18:05:23.460Z,3.30
2018-12-25T18:07:53.801Z,3.30
2018-12-25T18:10:24.167Z,3.30
2018-12-25T18:12:54.445Z,3.30
2018-12-25T18:15:24.903Z,3.30
2018-12-25T18:17:55.188Z,3.40
2018-12-25T18:20:25.560Z,3.50
2018-12-25T18:22:55.904Z,3.50
2018-12-25T18:25:26.255Z,3.50
2018-12-25T18:27:56.584Z,3.40
2018-12-25T18:30:26.818Z,3.40
2018-12-25T18:32:57.339Z,3.50
2018-12-25T18:35:27.821Z,3.60
2018-12-25T18:37:58.175Z,3.50
2018-12-25T18:40:28.629Z,3.60
2018-12-25T18:42:58.983Z,3.40
2018-12-25T18:45:29.421Z,3.40
2018-12-25T18:47:59.692Z,3.40
2018-12-25T18:50:33.658Z,3.30
2018-12-25T18:53:04.036Z,3.30
2018-12-25T18:55:34.495Z,3.40
2018-12-25T18:58:04.777Z,3.60
2018-12-25T19:00:35.055Z,3.70
2018-12-25T19:03:06.323Z,3.70
2018-12-25T19:05:36.635Z,3.60
2018-12-25T19:08:07.099Z,3.70
2018-12-25T19:10:37.811Z,3.80
2018-12-25T19:13:08.454Z,3.60
2018-12-25T19:15:38.629Z,3.60
2018-12-25T19:18:12.032Z,3.60
2018-12-25T19:20:42.286Z,3.60
2018-12-25T19:23:12.723Z,3.60
2018-12-25T19:25:43.009Z,3.60
2018-12-25T19:28:13.374Z,3.60
2018-12-25T19:30:43.619Z,3.60
2018-12-25T19:33:14.368Z,3.60
2018-12-25T19:35:44.621Z,3.70
2018-12-25T19:38:16.163Z,3.70
2018-12-25T19:40:46.401Z,3.70
2018-12-25T19:43:16.705Z,3.70
2018-12-25T19:45:47.567Z,3.60
2018-12-25T19:48:17.908Z,3.70
2018-12-25T19:50:48.261Z,3.70
2018-12-25T19:53:18.587Z,3.70
2018-12-25T19:55:52.637Z,3.80
2018-12-25T19:58:22.928Z,3.80
2018-12-25T20:00:53.445Z,3.90
2018-12-25T20:03:53.662Z,3.90
2018-12-25T20:07:09.973Z,3.90
2018-12-25T20:10:00.766Z,3.90
2018-12-25T20:13:22.229Z,3.90
2018-12-25T20:16:30.075Z,3.90
2018-12-25T20:19:22.599Z,3.90
2018-12-25T20:22:43.427Z,3.90
2018-12-25T20:25:50.667Z,3.90
2018-12-25T20:29:02.569Z,4.00
2018-12-25T20:32:04.187Z,4.00
2018-12-25T20:35:17.082Z,4.00
2018-12-25T20:38:24.212Z,4.00
2018-12-25T20:41:43.824Z,4.00
2018-12-25T20:44:48.116Z,4.10
2018-12-25T20:48:14.523Z,4.10
2018-12-25T20:51:39.974Z,4.20
2018-12-25T20:54:38.530Z,4.10
2018-12-25T20:57:55.816Z,4.20
2018-12-25T21:01:18.168Z,4.20
2018-12-25T21:04:32.467Z,4.30
2018-12-25T21:07:49.318Z,4.30
2018-12-25T21:11:03.402Z,4.20
2018-12-25T21:14:37.291Z,4.20
2018-12-25T21:17:46.154Z,4.30
2018-12-25T21:21:05.540Z,4.30
2018-12-25T21:24:11.709Z,4.30
2018-12-25T21:27:18.172Z,4.30
2018-12-25T21:29:48.374Z,4.30
2018-12-25T21:32:18.697Z,4.40
2018-12-25T21:34:49.554Z,4.30
2018-12-25T21:37:20.936Z,4.40
2018-12-25T21:39:51.283Z,4.40
2018-12-25T21:42:22.324Z,4.30
2018-12-25T21:44:53.098Z,4.30
2018-12-25T21:47:24.004Z,4.40
2018-12-25T21:49:54.796Z,4.40
2018-12-25T21:52:25.326Z,4.40
2018-12-25T21:54:55.934Z,4.50
2018-12-25T21:57:26.410Z,4.40
2018-12-25T21:59:56.956Z,4.40
2018-12-25T22:02:27.488Z,4.50
2018-12-25T22:04:58.007Z,4.40
2018-12-25T22:07:28.408Z,4.40
2018-12-25T22:09:58.650Z,4.50
2018-12-25T22:12:29.029Z,4.40
2018-12-25T22:14:59.345Z,4.40
2018-12-25T22:17:29.614Z,4.40
2018-12-25T22:20:00.895Z,4.40
2018-12-25T22:22:31.268Z,4.40
2018-12-25T22:25:01.620Z,4.40
2018-12-25T22:27:32.137Z,4.50
2018-12-25T22:30:02.502Z,4.50
2018-12-25T22:32:32.827Z,4.40
2018-12-25T22:35:03.096Z,4.40
2018-12-25T22:37:33.392Z,4.40
2018-12-25T22:40:03.896Z,4.40
2018-12-25T22:42:34.214Z,4.40
2018-12-25T22:45:05.237Z,4.50
2018-12-25T22:47:35.562Z,4.50
2018-12-25T22:50:06.672Z,4.50
2018-12-25T22:52:37.026Z,4.50
2018-12-25T22:55:08.654Z,4.50
2018-12-25T22:57:38.949Z,4.50
2018-12-25T23:00:12.142Z,4.40
2018-12-25T23:02:44.105Z,4.50
2018-12-25T23:05:14.418Z,4.50
2018-12-25T23:07:44.880Z,4.50
2018-12-25T23:10:15.509Z,4.40
2018-12-25T23:12:45.982Z,4.40
2018-12-25T23:15:16.292Z,4.40
2018-12-25T23:17:46.656Z,4.40
2018-12-25T23:20:16.942Z,4.30
2018-12-25T23:22:47.323Z,4.40
2018-12-25T23:25:17.630Z,4.40
2018-12-25T23:27:47.955Z,4.40
2018-12-25T23:30:18.343Z,4.40
2018-12-25T23:32:48.694Z,4.40
2018-12-25T23:35:19.043Z,4.50
2018-12-25T23:37:49.361Z,4.40
2018-12-25T23:40:19.687Z,4.40
2018-12-25T23:42:49.907Z,4.50
2018-12-25T23:45:20.166Z,4.40
2018-12-25T23:47:50.460Z,4.40
2018-12-25T23:50:20.747Z,4.50
2018-12-25T23:52:51.410Z,4.50
2018-12-25T23:55:22.879Z,4.50
2018-12-25T23:57:53.413Z,4.50
